M I D A S
Marine Information and Data Acquisition System
Tripno 1234 of the Zeeleeuw from 2007-03-19 08:20:02 to 2007-03-19 11:45:25
Back to CruiseResearch ActivitiesStationsMapUnderway DataData graphs

EquipmentUnitsComments
TimeDGPSUTC
LatitudeDGPSDM.mWGS84
LongitudeDGPSDM.mWGS84
SpeedMeteo Stationm/sRelative wind speed
DirectionMeteo StationdegRelative wind direction
TemperatureMeteo Stationdeg CelciusAir temperature
PressureMeteo StationPaAtmospheric pressure
HumidityMeteo Station%Relative humidity
Missing or incorrect values are displayed as -999
Metereological data collected by the RV Zeeleeuw from 2007-03-19 08:19:51 to 2007-03-19 12:56:07
Time Latitude Longitude Speed Direction Temperature Pressure Humidity
2007-03-19 08:20 51°13.616 2°56.03 -999 -999 -999 -999 -999
2007-03-19 08:21 51°13.648 2°55.956 -999 -999 -999 -999 -999
2007-03-19 08:22 51°13.688 2°55.848 -999 -999 -999 -999 -999
2007-03-19 08:23 51°13.724 2°55.738 -999 -999 -999 -999 -999
2007-03-19 08:24 51°13.731 2°55.729 -999 -999 -999 -999 -999
2007-03-19 08:25 51°13.727 2°55.717 -999 -999 -999 -999 -999
2007-03-19 08:26 51°13.726 2°55.722 -999 -999 -999 -999 -999
2007-03-19 08:27 51°13.731 2°55.719 -999 -999 -999 -999 -999
2007-03-19 08:28 51°13.777 2°55.675 -999 -999 -999 -999 -999
2007-03-19 08:29 51°13.879 2°55.596 -999 -999 -999 -999 -999
2007-03-19 08:30 51°14.016 2°55.502 -999 -999 -999 -999 -999
2007-03-19 08:31 51°14.154 2°55.4 -999 -999 -999 -999 -999
2007-03-19 08:32 51°14.268 2°55.255 -999 -999 -999 -999 -999
2007-03-19 08:33 51°14.371 2°55.056 -999 -999 -999 -999 -999
2007-03-19 08:34 51°14.458 2°54.817 -999 -999 -999 -999 -999
2007-03-19 08:35 51°14.423 2°54.527 -999 -999 -999 -999 -999
2007-03-19 08:36 51°14.325 2°54.234 -999 -999 -999 -999 -999
2007-03-19 08:37 51°14.22 2°53.936 -999 -999 -999 -999 -999
2007-03-19 08:38 51°14.113 2°53.641 -999 -999 -999 -999 -999
2007-03-19 08:39 51°14.001 2°53.334 -999 -999 -999 -999 -999
2007-03-19 08:40 51°13.891 2°53.035 -999 -999 -999 -999 -999
2007-03-19 08:41 51°13.78 2°52.725 -999 -999 -999 -999 -999
2007-03-19 08:42 51°13.671 2°52.428 -999 -999 -999 -999 -999
2007-03-19 08:43 51°13.558 2°52.122 -999 -999 -999 -999 -999
2007-03-19 08:44 51°13.45 2°51.827 -999 -999 -999 -999 -999
2007-03-19 08:45 51°13.337 2°51.522 -999 -999 -999 -999 -999
2007-03-19 08:46 51°13.228 2°51.227 -999 -999 -999 -999 -999
2007-03-19 08:47 51°13.117 2°50.924 -999 -999 -999 -999 -999
2007-03-19 08:48 51°13.009 2°50.627 -999 -999 -999 -999 -999
2007-03-19 08:49 51°12.901 2°50.337 -999 -999 -999 -999 -999
2007-03-19 08:50 51°12.793 2°50.036 -999 -999 -999 -999 -999
2007-03-19 08:51 51°12.689 2°49.744 -999 -999 -999 -999 -999
2007-03-19 08:52 51°12.583 2°49.442 -999 -999 -999 -999 -999
2007-03-19 08:53 51°12.477 2°49.154 -999 -999 -999 -999 -999
2007-03-19 08:54 51°12.376 2°48.857 -999 -999 -999 -999 -999
2007-03-19 08:55 51°12.277 2°48.554 -999 -999 -999 -999 -999
2007-03-19 08:56 51°12.186 2°48.246 -999 -999 -999 -999 -999
2007-03-19 08:57 51°12.112 2°47.926 -999 -999 -999 -999 -999
2007-03-19 08:58 51°12.055 2°47.605 -999 -999 -999 -999 -999
2007-03-19 08:59 51°12.002 2°47.276 -999 -999 -999 -999 -999
2007-03-19 09:00 51°11.949 2°46.96 -999 -999 -999 -999 -999
2007-03-19 09:01 51°11.894 2°46.634 -999 -999 -999 -999 -999
2007-03-19 09:02 51°11.841 2°46.313 -999 -999 -999 -999 -999
2007-03-19 09:03 51°11.792 2°45.98 -999 -999 -999 -999 -999
2007-03-19 09:04 51°11.749 2°45.662 -999 -999 -999 -999 -999
2007-03-19 09:05 51°11.706 2°45.341 -999 -999 -999 -999 -999
2007-03-19 09:06 51°11.671 2°45.013 -999 -999 -999 -999 -999
2007-03-19 09:07 51°11.658 2°44.696 -999 -999 -999 -999 -999
2007-03-19 09:08 51°11.645 2°44.375 -999 -999 -999 -999 -999
2007-03-19 09:09 51°11.633 2°44.07 -999 -999 -999 -999 -999
2007-03-19 09:10 51°11.622 2°43.746 -999 -999 -999 -999 -999
2007-03-19 09:11 51°11.611 2°43.431 -999 -999 -999 -999 -999
2007-03-19 09:12 51°11.597 2°43.115 -999 -999 -999 -999 -999
2007-03-19 09:13 51°11.565 2°42.798 -999 -999 -999 -999 -999
2007-03-19 09:14 51°11.515 2°42.486 -999 -999 -999 -999 -999
2007-03-19 09:15 51°11.435 2°42.188 -999 -999 -999 -999 -999
2007-03-19 09:16 51°11.331 2°41.901 -999 -999 -999 -999 -999
2007-03-19 09:17 51°11.225 2°41.617 -999 -999 -999 -999 -999
2007-03-19 09:18 51°11.119 2°41.342 -999 -999 -999 -999 -999
2007-03-19 09:19 51°10.997 2°41.065 -999 -999 -999 -999 -999
2007-03-19 09:20 51°10.878 2°40.795 -999 -999 -999 -999 -999
2007-03-19 09:21 51°10.759 2°40.518 -999 -999 -999 -999 -999
2007-03-19 09:22 51°10.64 2°40.241 -999 -999 -999 -999 -999
2007-03-19 09:23 51°10.524 2°39.968 -999 -999 -999 -999 -999
2007-03-19 09:24 51°10.406 2°39.686 -999 -999 -999 -999 -999
2007-03-19 09:25 51°10.289 2°39.413 -999 -999 -999 -999 -999
2007-03-19 09:26 51°10.171 2°39.13 -999 -999 -999 -999 -999
2007-03-19 09:27 51°10.055 2°38.855 -999 -999 -999 -999 -999
2007-03-19 09:28 51°9.932 2°38.581 -999 -999 -999 -999 -999
2007-03-19 09:29 51°9.811 2°38.312 -999 -999 -999 -999 -999
2007-03-19 09:30 51°9.688 2°38.043 -999 -999 -999 -999 -999
2007-03-19 09:31 51°9.541 2°37.79 -999 -999 -999 -999 -999
2007-03-19 09:32 51°9.404 2°37.55 -999 -999 -999 -999 -999
2007-03-19 09:33 51°9.303 2°37.371 -999 -999 -999 -999 -999
2007-03-19 09:34 51°9.251 2°37.258 -999 -999 -999 -999 -999
2007-03-19 09:35 51°9.236 2°37.174 -999 -999 -999 -999 -999
2007-03-19 09:36 51°9.227 2°37.129 -999 -999 -999 -999 -999
2007-03-19 09:37 51°9.204 2°37.119 -999 -999 -999 -999 -999
2007-03-19 09:38 51°9.184 2°37.123 -999 -999 -999 -999 -999
2007-03-19 09:39 51°9.166 2°37.122 -999 -999 -999 -999 -999
2007-03-19 09:40 51°9.146 2°37.12 -999 -999 -999 -999 -999
2007-03-19 09:41 51°9.125 2°37.117 -999 -999 -999 -999 -999
2007-03-19 09:42 51°9.104 2°37.112 -999 -999 -999 -999 -999
2007-03-19 09:43 51°9.083 2°37.112 -999 -999 -999 -999 -999
2007-03-19 09:44 51°9.061 2°37.109 -999 -999 -999 -999 -999
2007-03-19 09:45 51°9.039 2°37.107 -999 -999 -999 -999 -999
2007-03-19 09:46 51°9.017 2°37.105 -999 -999 -999 -999 -999
2007-03-19 09:47 51°8.995 2°37.106 -999 -999 -999 -999 -999
2007-03-19 09:48 51°8.976 2°37.106 -999 -999 -999 -999 -999
2007-03-19 09:49 51°8.957 2°37.108 -999 -999 -999 -999 -999
2007-03-19 09:50 51°8.939 2°37.109 -999 -999 -999 -999 -999
2007-03-19 09:51 51°8.921 2°37.112 -999 -999 -999 -999 -999
2007-03-19 09:52 51°8.897 2°37.105 -999 -999 -999 -999 -999
2007-03-19 09:53 51°8.878 2°37.03 -999 -999 -999 -999 -999
2007-03-19 09:54 51°8.926 2°36.982 -999 -999 -999 -999 -999
2007-03-19 09:55 51°8.99 2°36.988 -999 -999 -999 -999 -999
2007-03-19 09:56 51°9.075 2°36.968 -999 -999 -999 -999 -999
2007-03-19 09:57 51°9.163 2°36.947 -999 -999 -999 -999 -999
2007-03-19 09:58 51°9.19 2°36.945 -999 -999 -999 -999 -999
2007-03-19 09:59 51°9.201 2°36.921 -999 -999 -999 -999 -999
2007-03-19 10:00 51°9.179 2°36.914 -999 -999 -999 -999 -999
2007-03-19 10:01 51°9.155 2°36.918 -999 -999 -999 -999 -999
2007-03-19 10:02 51°9.131 2°36.925 -999 -999 -999 -999 -999
2007-03-19 10:03 51°9.11 2°36.934 -999 -999 -999 -999 -999
2007-03-19 10:04 51°9.09 2°36.942 -999 -999 -999 -999 -999
2007-03-19 10:05 51°9.072 2°36.955 -999 -999 -999 -999 -999
2007-03-19 10:06 51°9.053 2°36.968 -999 -999 -999 -999 -999
2007-03-19 10:07 51°9.034 2°36.981 -999 -999 -999 -999 -999
2007-03-19 10:08 51°9.014 2°36.994 -999 -999 -999 -999 -999
2007-03-19 10:09 51°8.996 2°37.01 -999 -999 -999 -999 -999
2007-03-19 10:10 51°8.979 2°37.026 -999 -999 -999 -999 -999
2007-03-19 10:11 51°8.961 2°37.04 -999 -999 -999 -999 -999
2007-03-19 10:12 51°8.944 2°37.054 -999 -999 -999 -999 -999
2007-03-19 10:13 51°8.928 2°37.07 -999 -999 -999 -999 -999
2007-03-19 10:14 51°8.913 2°37.085 -999 -999 -999 -999 -999
2007-03-19 10:15 51°8.891 2°37.082 -999 -999 -999 -999 -999
2007-03-19 10:16 51°8.883 2°37.017 -999 -999 -999 -999 -999
2007-03-19 10:17 51°8.922 2°37.012 -999 -999 -999 -999 -999
2007-03-19 10:18 51°8.95 2°37.099 -999 -999 -999 -999 -999
2007-03-19 10:19 51°8.967 2°37.209 -999 -999 -999 -999 -999
2007-03-19 10:20 51°8.974 2°37.307 -999 -999 -999 -999 -999
2007-03-19 10:21 51°8.975 2°37.395 -999 -999 -999 -999 -999
2007-03-19 10:22 51°8.975 2°37.477 -999 -999 -999 -999 -999
2007-03-19 10:23 51°8.983 2°37.546 -999 -999 -999 -999 -999
2007-03-19 10:24 51°8.996 2°37.616 -999 -999 -999 -999 -999
2007-03-19 10:25 51°9.016 2°37.689 -999 -999 -999 -999 -999
2007-03-19 10:26 51°9.04 2°37.768 -999 -999 -999 -999 -999
2007-03-19 10:27 51°9.065 2°37.852 -999 -999 -999 -999 -999
2007-03-19 10:28 51°9.09 2°37.941 -999 -999 -999 -999 -999
2007-03-19 10:29 51°9.107 2°38.04 -999 -999 -999 -999 -999
2007-03-19 10:30 51°9.122 2°38.133 -999 -999 -999 -999 -999
2007-03-19 10:31 51°9.136 2°38.218 -999 -999 -999 -999 -999
2007-03-19 10:32 51°9.15 2°38.302 -999 -999 -999 -999 -999
2007-03-19 10:33 51°9.166 2°38.386 -999 -999 -999 -999 -999
2007-03-19 10:34 51°9.181 2°38.467 -999 -999 -999 -999 -999
2007-03-19 10:35 51°9.199 2°38.544 -999 -999 -999 -999 -999
2007-03-19 10:36 51°9.219 2°38.618 -999 -999 -999 -999 -999
2007-03-19 10:37 51°9.243 2°38.697 -999 -999 -999 -999 -999
2007-03-19 10:38 51°9.27 2°38.781 -999 -999 -999 -999 -999
2007-03-19 10:39 51°9.295 2°38.868 -999 -999 -999 -999 -999
2007-03-19 10:40 51°9.317 2°38.957 -999 -999 -999 -999 -999
2007-03-19 10:41 51°9.334 2°39.045 -999 -999 -999 -999 -999
2007-03-19 10:42 51°9.348 2°39.136 -999 -999 -999 -999 -999
2007-03-19 10:43 51°9.359 2°39.224 -999 -999 -999 -999 -999
2007-03-19 10:44 51°9.372 2°39.311 -999 -999 -999 -999 -999
2007-03-19 10:45 51°9.387 2°39.399 -999 -999 -999 -999 -999
2007-03-19 10:46 51°9.401 2°39.486 -999 -999 -999 -999 -999
2007-03-19 10:47 51°9.416 2°39.574 -999 -999 -999 -999 -999
2007-03-19 10:48 51°9.425 2°39.665 -999 -999 -999 -999 -999
2007-03-19 10:49 51°9.416 2°39.756 -999 -999 -999 -999 -999
2007-03-19 10:50 51°9.392 2°39.84 -999 -999 -999 -999 -999
2007-03-19 10:51 51°9.368 2°39.915 -999 -999 -999 -999 -999
2007-03-19 10:52 51°9.354 2°39.98 -999 -999 -999 -999 -999
2007-03-19 10:53 51°9.343 2°40.041 -999 -999 -999 -999 -999
2007-03-19 10:54 51°9.336 2°40.096 -999 -999 -999 -999 -999
2007-03-19 10:55 51°9.327 2°40.146 -999 -999 -999 -999 -999
2007-03-19 10:56 51°9.32 2°40.214 -999 -999 -999 -999 -999
2007-03-19 10:57 51°9.333 2°40.308 -999 -999 -999 -999 -999
2007-03-19 10:58 51°9.368 2°40.422 -999 -999 -999 -999 -999
2007-03-19 10:59 51°9.421 2°40.566 -999 -999 -999 -999 -999
2007-03-19 11:00 51°9.488 2°40.739 -999 -999 -999 -999 -999
2007-03-19 11:01 51°9.591 2°40.969 -999 -999 -999 -999 -999
2007-03-19 11:02 51°9.704 2°41.207 -999 -999 -999 -999 -999
2007-03-19 11:03 51°9.816 2°41.449 -999 -999 -999 -999 -999
2007-03-19 11:04 51°9.932 2°41.699 -999 -999 -999 -999 -999
2007-03-19 11:05 51°10.062 2°41.978 -999 -999 -999 -999 -999
2007-03-19 11:06 51°10.193 2°42.289 -999 -999 -999 -999 -999
2007-03-19 11:07 51°10.323 2°42.612 -999 -999 -999 -999 -999
2007-03-19 11:08 51°10.454 2°42.923 -999 -999 -999 -999 -999
2007-03-19 11:09 51°10.589 2°43.241 -999 -999 -999 -999 -999
2007-03-19 11:10 51°10.725 2°43.559 -999 -999 -999 -999 -999
2007-03-19 11:11 51°10.859 2°43.88 -999 -999 -999 -999 -999
2007-03-19 11:12 51°10.98 2°44.217 -999 -999 -999 -999 -999
2007-03-19 11:13 51°11.1 2°44.55 -999 -999 -999 -999 -999
2007-03-19 11:14 51°11.212 2°44.898 -999 -999 -999 -999 -999
2007-03-19 11:15 51°11.316 2°45.243 -999 -999 -999 -999 -999
2007-03-19 11:16 51°11.425 2°45.593 -999 -999 -999 -999 -999
2007-03-19 11:17 51°11.531 2°45.932 -999 -999 -999 -999 -999
2007-03-19 11:18 51°11.643 2°46.28 -999 -999 -999 -999 -999
2007-03-19 11:19 51°11.754 2°46.622 -999 -999 -999 -999 -999
2007-03-19 11:20 51°11.866 2°46.975 -999 -999 -999 -999 -999
2007-03-19 11:21 51°11.973 2°47.317 -999 -999 -999 -999 -999
2007-03-19 11:22 51°12.084 2°47.662 -999 -999 -999 -999 -999
2007-03-19 11:23 51°12.194 2°48.013 -999 -999 -999 -999 -999
2007-03-19 11:24 51°12.309 2°48.346 -999 -999 -999 -999 -999
2007-03-19 11:25 51°12.426 2°48.693 -999 -999 -999 -999 -999
2007-03-19 11:26 51°12.546 2°49.025 -999 -999 -999 -999 -999
2007-03-19 11:27 51°12.663 2°49.373 -999 -999 -999 -999 -999
2007-03-19 11:28 51°12.776 2°49.708 -999 -999 -999 -999 -999
2007-03-19 11:29 51°12.9 2°50.043 -999 -999 -999 -999 -999
2007-03-19 11:30 51°13.028 2°50.38 -999 -999 -999 -999 -999
2007-03-19 11:31 51°13.155 2°50.704 -999 -999 -999 -999 -999
2007-03-19 11:32 51°13.252 2°50.977 -999 -999 -999 -999 -999
2007-03-19 11:33 51°13.362 2°51.277 -999 -999 -999 -999 -999
2007-03-19 11:34 51°13.487 2°51.607 -999 -999 -999 -999 -999
2007-03-19 11:35 51°13.614 2°51.936 -999 -999 -999 -999 -999
2007-03-19 11:36 51°13.745 2°52.271 -999 -999 -999 -999 -999
2007-03-19 11:37 51°13.861 2°52.611 -999 -999 -999 -999 -999
2007-03-19 11:38 51°13.975 2°52.95 -999 -999 -999 -999 -999
2007-03-19 11:39 51°14.093 2°53.299 -999 -999 -999 -999 -999
2007-03-19 11:40 51°14.211 2°53.635 -999 -999 -999 -999 -999
2007-03-19 11:41 51°14.316 2°53.981 -999 -999 -999 -999 -999
2007-03-19 11:42 51°14.396 2°54.31 -999 -999 -999 -999 -999
2007-03-19 11:43 51°14.435 2°54.665 -999 -999 -999 -999 -999
2007-03-19 11:44 51°14.388 2°55.004 -999 -999 -999 -999 -999
2007-03-19 11:45 51°14.264 2°55.269 -999 -999 -999 -999 -999
2007-03-19 11:46 51°14.107 2°55.429 -999 -999 -999 -999 -999
2007-03-19 11:47 51°13.977 2°55.523 -999 -999 -999 -999 -999
2007-03-19 11:48 51°13.876 2°55.599 -999 -999 -999 -999 -999
2007-03-19 11:49 51°13.792 2°55.667 -999 -999 -999 -999 -999
2007-03-19 11:50 51°13.721 2°55.751 -999 -999 -999 -999 -999
2007-03-19 11:51 51°13.669 2°55.843 -999 -999 -999 -999 -999
2007-03-19 11:52 51°13.631 2°55.946 -999 -999 -999 -999 -999
2007-03-19 11:53 51°13.61 2°56.032 -999 -999 -999 -999 -999
2007-03-19 11:54 51°13.599 2°56.087 -999 -999 -999 -999 -999
2007-03-19 11:55 51°13.599 2°56.093 -999 -999 -999 -999 -999
2007-03-19 11:56 51°13.597 2°56.094 -999 -999 -999 -999 -999
2007-03-19 11:57 51°13.597 2°56.095 -999 -999 -999 -999 -999
2007-03-19 11:58 51°13.598 2°56.095 -999 -999 -999 -999 -999
2007-03-19 11:59 51°13.598 2°56.096 -999 -999 -999 -999 -999
2007-03-19 12:00 51°13.598 2°56.096 -999 -999 -999 -999 -999
2007-03-19 12:01 51°13.598 2°56.095 -999 -999 -999 -999 -999
2007-03-19 12:02 51°13.598 2°56.095 -999 -999 -999 -999 -999
2007-03-19 12:03 51°13.598 2°56.095 3.1 310 5 -999 66
2007-03-19 12:04 51°13.598 2°56.095 2.4 304 5.1 99260 78
2007-03-19 12:05 51°13.598 2°56.094 5.1 305 5.2 99250 78
2007-03-19 12:06 51°13.598 2°56.095 3 307 5.2 99260 78
2007-03-19 12:07 51°13.598 2°56.094 3.2 45 5.3 99250 78
2007-03-19 12:08 51°13.598 2°56.094 4.7 311 5.2 99260 78
2007-03-19 12:09 51°13.598 2°56.094 3.4 313 5.2 99260 78
2007-03-19 12:10 51°13.597 2°56.094 4.7 309 5.2 99260 79
2007-03-19 12:11 51°13.597 2°56.095 2.7 308 5.1 99260 80
2007-03-19 12:12 51°13.597 2°56.095 4.3 303 5.2 99270 80
2007-03-19 12:13 51°13.597 2°56.095 4.6 55 5.2 99270 80
2007-03-19 12:14 51°13.598 2°56.095 8.8 53 5.2 99260 77
2007-03-19 12:15 51°13.597 2°56.095 7.6 55 5.3 99260 76
2007-03-19 12:16 51°13.598 2°56.094 4.7 310 5.4 99260 77
2007-03-19 12:17 51°13.598 2°56.094 11.4 52 5.3 99260 76
2007-03-19 12:18 51°13.597 2°56.094 5.2 54 5.3 99270 75
2007-03-19 12:19 51°13.597 2°56.095 13.2 51 5.2 99280 74
2007-03-19 12:20 51°13.597 2°56.095 6.9 16 5.2 99270 75
2007-03-19 12:21 51°13.597 2°56.096 5.8 311 5.2 99270 76
2007-03-19 12:22 51°13.597 2°56.096 14.7 52 5.2 99260 76
2007-03-19 12:23 51°13.598 2°56.096 13.3 47 5 99270 75
2007-03-19 12:24 51°13.598 2°56.095 7.1 308 5 99270 74
2007-03-19 12:25 51°13.598 2°56.095 9.2 55 5.1 99270 74
2007-03-19 12:26 51°13.597 2°56.095 10.4 56 5.2 99270 75
2007-03-19 12:27 51°13.597 2°56.094 11.7 54 5.2 99280 74
2007-03-19 12:28 51°13.597 2°56.095 14 53 5.2 99270 73
2007-03-19 12:29 51°13.598 2°56.094 12.9 56 5.2 99270 72
2007-03-19 12:30 51°13.598 2°56.095 4 308 5.3 99270 72
2007-03-19 12:31 51°13.598 2°56.095 9.7 54 5.4 99280 73
2007-03-19 12:32 51°13.597 2°56.096 6.3 49 5.4 99280 73
2007-03-19 12:33 51°13.597 2°56.096 7.4 307 5.4 99270 72
2007-03-19 12:34 51°13.597 2°56.095 8.5 54 5.4 99290 72
2007-03-19 12:35 51°13.597 2°56.095 9.5 53 5.4 99280 71
2007-03-19 12:36 51°13.598 2°56.094 5.1 49 5.4 99280 71
2007-03-19 12:37 51°13.598 2°56.095 11.1 55 5.3 99280 70
2007-03-19 12:38 51°13.598 2°56.095 11.6 59 5.3 99290 70
2007-03-19 12:39 51°13.598 2°56.095 6.9 13 5.3 99280 70
2007-03-19 12:40 51°13.598 2°56.096 4.7 53 5.3 99290 71
2007-03-19 12:41 51°13.599 2°56.095 4.5 55 5.4 99290 73
2007-03-19 12:42 51°13.598 2°56.095 8.3 303 5.3 99290 72
2007-03-19 12:43 51°13.598 2°56.095 4.9 54 5.3 99290 71
2007-03-19 12:44 51°13.598 2°56.095 4.8 55 5.3 99300 70
2007-03-19 12:45 51°13.598 2°56.095 5.8 50 5.4 99300 70
2007-03-19 12:46 51°13.598 2°56.094 11.8 53 5.4 99290 68
2007-03-19 12:47 51°13.599 2°56.094 4.5 57 5.4 99290 67
2007-03-19 12:48 51°13.598 2°56.095 5.6 56 5.5 99300 67
2007-03-19 12:49 51°13.599 2°56.095 7 311 5.6 99300 68
2007-03-19 12:50 51°13.599 2°56.095 7.1 50 5.7 99300 67
2007-03-19 12:51 51°13.598 2°56.096 7.6 54 5.8 99310 66
2007-03-19 12:52 51°13.599 2°56.095 4.7 52 5.8 99310 63
2007-03-19 12:53 51°13.599 2°56.095 7.3 57 5.9 99310 64
2007-03-19 12:54 51°13.599 2°56.095 8.4 57 6 99310 62
2007-03-19 12:55 51°13.599 2°56.094 12.3 59 6.1 99310 63